Time;durP1;ratioP1;P1;durP2;ratioP2;P2;SDS_P1;SDS_P2;PMS_P1;PMS_P2;Temp;Humidity;BMP_temperature;BMP_pressure;BME280_temperature;BME280_humidity;BME280_pressure;Samples;Min_cycle;Max_cycle;Signal;HPM_P1;HPM_P2
2024/04/23 00:00:05;;;;;;;;;;;17.30;52.70;;;;;;5489391;26;19960;-76
2024/04/23 00:02:31;;;;;;;;;;;17.40;51.10;;;;;;5489633;26;19960;-75
2024/04/23 00:04:56;;;;;;;;;;;17.40;52.60;;;;;;5489578;26;20355;-76
2024/04/23 00:07:22;;;;;;;;;;;17.30;52.90;;;;;;5487770;26;19996;-76
2024/04/23 00:09:49;;;;;;;;;;;17.30;52.70;;;;;;5489344;26;20334;-76
2024/04/23 00:12:14;;;;;;;;;;;17.50;52.70;;;;;;5489335;26;19928;-76
2024/04/23 00:14:40;;;;;;;;;;;17.30;52.80;;;;;;5489469;26;19927;-75
2024/04/23 00:17:05;;;;;;;;;;;17.30;52.90;;;;;;5489555;26;19935;-76
2024/04/23 00:19:31;;;;;;;;;;;17.10;52.70;;;;;;5488906;26;19928;-76
2024/04/23 00:21:57;;;;;;;;;;;17.40;53.00;;;;;;5489573;26;19935;-76
2024/04/23 00:24:22;;;;;;;;;;;17.30;52.70;;;;;;5489193;26;19935;-75
2024/04/23 00:26:57;;;;;;;;;;;17.30;52.90;;;;;;5489254;26;19931;-76
2024/04/23 00:29:23;;;;;;;;;;;17.30;48.80;;;;;;5488896;26;19960;-76
2024/04/23 00:31:49;;;;;;;;;;;17.30;53.10;;;;;;5489459;26;20049;-76
2024/04/23 00:34:14;;;;;;;;;;;17.30;53.00;;;;;;5488834;26;20273;-76
2024/04/23 00:36:53;;;;;;;;;;;17.30;53.00;;;;;;5488938;26;19980;-76
2024/04/23 00:39:18;;;;;;;;;;;17.30;48.80;;;;;;5488803;26;19928;-76
2024/04/23 00:41:44;;;;;;;;;;;17.30;52.90;;;;;;5488961;26;19939;-76
2024/04/23 00:44:09;;;;;;;;;;;17.20;52.60;;;;;;5485701;26;19938;-76
2024/04/23 00:46:36;;;;;;;;;;;17.20;53.00;;;;;;5488718;26;20345;-76
2024/04/23 00:49:02;;;;;;;;;;;17.20;52.90;;;;;;5486800;26;20374;-76
2024/04/23 00:51:28;;;;;;;;;;;17.20;52.90;;;;;;5488725;26;19935;-76
2024/04/23 00:53:54;;;;;;;;;;;17.30;53.00;;;;;;5488523;26;19928;-76
2024/04/23 00:56:20;;;;;;;;;;;17.20;53.00;;;;;;5488620;26;20358;-76
2024/04/23 00:58:49;;;;;;;;;;;17.20;52.80;;;;;;5488785;26;20366;-75
2024/04/23 01:01:16;;;;;;;;;;;17.20;53.10;;;;;;5488688;26;19928;-75
2024/04/23 01:03:41;;;;;;;;;;;17.10;52.60;;;;;;5488165;26;19929;-75
2024/04/23 01:06:07;;;;;;;;;;;17.20;53.10;;;;;;5488953;26;19928;-75
2024/04/23 01:08:32;;;;;;;;;;;17.20;53.00;;;;;;5488844;26;19935;-76
2024/04/23 01:10:58;;;;;;;;;;;17.10;53.00;;;;;;5487089;26;19935;-76
2024/04/23 01:13:23;;;;;;;;;;;17.20;53.30;;;;;;5488861;26;19928;-76
2024/04/23 01:15:49;;;;;;;;;;;17.10;53.00;;;;;;5488600;26;19928;-76
2024/04/23 01:18:17;;;;;;;;;;;17.20;53.00;;;;;;5488693;26;19928;-76
2024/04/23 01:20:43;;;;;;;;;;;17.10;53.20;;;;;;5488355;26;20270;-76
2024/04/23 01:23:13;;;;;;;;;;;17.20;53.00;;;;;;5488471;26;19928;-76
2024/04/23 01:25:41;;;;;;;;;;;17.10;53.20;;;;;;5488523;26;19928;-76
2024/04/23 01:28:06;;;;;;;;;;;17.10;53.30;;;;;;5488909;26;19956;-76
2024/04/23 01:30:32;;;;;;;;;;;17.20;53.30;;;;;;5488258;26;20259;-76
2024/04/23 01:32:59;;;;;;;;;;;17.10;53.20;;;;;;5488430;26;20030;-75
2024/04/23 01:35:25;;;;;;;;;;;16.90;53.30;;;;;;5488819;26;20436;-76
2024/04/23 01:37:51;;;;;;;;;;;17.10;53.20;;;;;;5488504;26;19928;-76
2024/04/23 01:40:17;;;;;;;;;;;17.00;53.10;;;;;;5488204;26;19961;-76
2024/04/23 01:42:43;;;;;;;;;;;17.00;52.70;;;;;;5488006;26;19934;-76
2024/04/23 01:45:15;;;;;;;;;;;17.00;53.30;;;;;;5486116;26;20399;-75
2024/04/23 01:47:44;;;;;;;;;;;17.10;53.50;;;;;;5488262;26;19928;-76
2024/04/23 01:50:10;;;;;;;;;;;17.00;53.30;;;;;;5487683;26;19939;-76
2024/04/23 01:52:36;;;;;;;;;;;17.00;53.20;;;;;;5488186;26;19939;-76
2024/04/23 01:55:01;;;;;;;;;;;16.90;53.30;;;;;;5487862;26;19939;-76
2024/04/23 01:57:27;;;;;;;;;;;17.10;52.90;;;;;;5492035;26;19935;-76
2024/04/23 01:59:56;;;;;;;;;;;16.90;53.40;;;;;;5491269;26;19936;-76
2024/04/23 02:02:22;;;;;;;;;;;17.20;53.70;;;;;;5491513;26;19928;-76
2024/04/23 02:04:48;;;;;;;;;;;17.10;53.20;;;;;;5491352;26;19935;-76
2024/04/23 02:07:13;;;;;;;;;;;17.00;53.40;;;;;;5490966;26;19928;-76
2024/04/23 02:09:40;;;;;;;;;;;16.90;53.20;;;;;;5490962;26;19935;-75
2024/04/23 02:12:06;;;;;;;;;;;17.10;53.70;;;;;;5491235;26;19935;-75
2024/04/23 02:14:32;;;;;;;;;;;16.90;53.30;;;;;;5490856;26;19952;-76
2024/04/23 02:16:58;;;;;;;;;;;16.90;53.50;;;;;;5491132;26;19928;-76
2024/04/23 02:19:23;;;;;;;;;;;16.90;53.20;;;;;;5491307;26;20359;-76
2024/04/23 02:21:48;;;;;;;;;;;17.00;53.30;;;;;;5491100;26;19928;-76
2024/04/23 02:24:20;;;;;;;;;;;16.90;53.50;;;;;;5490956;26;19938;-75
2024/04/23 02:26:45;;;;;;;;;;;17.50;49.90;;;;;;5491242;26;19935;-72
2024/04/23 02:29:11;;;;;;;;;;;17.00;53.60;;;;;;5490506;26;19928;-72
2024/04/23 02:31:36;;;;;;;;;;;16.80;53.40;;;;;;5490651;26;20261;-72
2024/04/23 02:34:02;;;;;;;;;;;16.90;53.40;;;;;;5490443;26;19936;-72
2024/04/23 02:36:27;;;;;;;;;;;16.80;53.50;;;;;;5490946;26;20001;-72
2024/04/23 02:38:53;;;;;;;;;;;16.80;53.60;;;;;;5490603;26;20369;-72
2024/04/23 02:41:18;;;;;;;;;;;16.80;53.00;;;;;;5490518;26;19935;-72
2024/04/23 02:43:44;;;;;;;;;;;16.80;53.40;;;;;;5490445;26;19934;-72
2024/04/23 02:46:09;;;;;;;;;;;16.70;53.40;;;;;;5490436;26;19928;-72
2024/04/23 02:48:35;;;;;;;;;;;16.80;53.50;;;;;;5490298;26;19952;-72
2024/04/23 02:51:00;;;;;;;;;;;16.70;53.70;;;;;;5490418;26;20022;-72
2024/04/23 02:53:26;;;;;;;;;;;16.80;53.70;;;;;;5491056;26;19938;-72
2024/04/23 02:55:51;;;;;;;;;;;16.80;54.00;;;;;;5490470;26;19928;-72
2024/04/23 02:58:17;;;;;;;;;;;16.80;53.80;;;;;;5490348;26;19936;-72
2024/04/23 03:00:42;;;;;;;;;;;16.80;53.70;;;;;;5490364;26;20358;-72
2024/04/23 03:03:08;;;;;;;;;;;16.70;53.90;;;;;;5488320;26;19928;-72
2024/04/23 03:05:33;;;;;;;;;;;16.70;54.00;;;;;;5490728;26;19940;-72
2024/04/23 03:07:58;;;;;;;;;;;16.80;54.00;;;;;;5489507;26;19935;-72
2024/04/23 03:10:24;;;;;;;;;;;16.70;53.80;;;;;;5490509;26;19927;-72
2024/04/23 03:12:49;;;;;;;;;;;16.90;53.90;;;;;;5490584;26;19939;-72
2024/04/23 03:15:15;;;;;;;;;;;16.60;53.80;;;;;;5490613;26;19928;-72
2024/04/23 03:17:40;;;;;;;;;;;16.70;53.80;;;;;;5490267;26;19934;-72
2024/04/23 03:20:06;;;;;;;;;;;16.70;53.90;;;;;;5490505;26;19950;-72
2024/04/23 03:22:31;;;;;;;;;;;16.70;52.20;;;;;;5490737;26;19928;-73
2024/04/23 03:24:57;;;;;;;;;;;16.70;54.10;;;;;;5490470;26;20464;-72
2024/04/23 03:27:22;;;;;;;;;;;16.70;53.90;;;;;;5490413;26;19928;-72
2024/04/23 03:29:48;;;;;;;;;;;16.70;54.30;;;;;;5490335;26;19928;-72
2024/04/23 03:32:14;;;;;;;;;;;16.80;54.00;;;;;;5490376;26;20343;-72
2024/04/23 03:34:40;;;;;;;;;;;16.70;54.00;;;;;;5490204;26;19928;-72
2024/04/23 03:37:05;;;;;;;;;;;16.70;54.20;;;;;;5490129;26;19928;-72
2024/04/23 03:39:31;;;;;;;;;;;16.70;54.20;;;;;;5489847;26;20265;-72
2024/04/23 03:41:57;;;;;;;;;;;16.70;54.60;;;;;;5489954;26;19959;-72
2024/04/23 03:44:26;;;;;;;;;;;16.70;54.60;;;;;;5489877;26;19928;-73
2024/04/23 03:46:51;;;;;;;;;;;16.60;50.30;;;;;;5490342;26;19935;-72
2024/04/23 03:49:17;;;;;;;;;;;16.60;54.60;;;;;;5490040;26;19928;-73
2024/04/23 03:51:42;;;;;;;;;;;16.90;54.80;;;;;;5490408;26;19951;-73
2024/04/23 03:54:08;;;;;;;;;;;16.70;55.10;;;;;;5490349;26;20026;-73
2024/04/23 03:56:33;;;;;;;;;;;16.70;54.70;;;;;;5490035;26;20258;-73
2024/04/23 03:58:59;;;;;;;;;;;16.70;54.80;;;;;;5489932;26;19928;-72
2024/04/23 04:01:24;;;;;;;;;;;16.70;55.10;;;;;;5489878;26;20424;-72
2024/04/23 04:06:34;;;;;;;;;;;16.60;52.00;;;;;;5489676;26;19938;-73
2024/04/23 04:09:00;;;;;;;;;;;16.70;55.10;;;;;;5489359;26;19932;-72
2024/04/23 04:11:25;;;;;;;;;;;16.80;55.00;;;;;;5489470;26;19928;-72
2024/04/23 04:14:10;;;;;;;;;;;16.70;53.50;;;;;;5491445;26;20066;-72
2024/04/23 04:16:35;;;;;;;;;;;16.70;55.30;;;;;;5489443;26;19928;-72
2024/04/23 04:19:01;;;;;;;;;;;16.60;55.20;;;;;;5490139;26;19934;-72
2024/04/23 04:21:26;;;;;;;;;;;16.70;55.20;;;;;;5489432;26;20085;-72
2024/04/23 04:23:52;;;;;;;;;;;16.70;55.50;;;;;;5487532;26;19956;-72
2024/04/23 04:26:17;;;;;;;;;;;16.70;55.30;;;;;;5489574;26;20005;-73
2024/04/23 04:28:43;;;;;;;;;;;16.70;55.40;;;;;;5489269;26;19928;-72
2024/04/23 04:31:08;;;;;;;;;;;16.60;55.30;;;;;;5489458;26;20351;-72
2024/04/23 04:33:34;;;;;;;;;;;15.80;55.10;;;;;;5488777;26;19934;-72
2024/04/23 04:36:00;;;;;;;;;;;16.60;55.50;;;;;;5489567;26;19928;-72
2024/04/23 04:38:25;;;;;;;;;;;16.70;55.80;;;;;;5489035;26;19935;-73
2024/04/23 04:40:51;;;;;;;;;;;16.60;55.40;;;;;;5489303;26;20026;-72
2024/04/23 04:43:16;;;;;;;;;;;16.60;55.40;;;;;;5489290;26;19935;-72
2024/04/23 04:45:42;;;;;;;;;;;16.60;55.60;;;;;;5488936;26;20472;-72
2024/04/23 04:48:08;;;;;;;;;;;16.60;55.70;;;;;;5489472;26;19996;-72
2024/04/23 04:50:33;;;;;;;;;;;16.60;55.80;;;;;;5488827;26;19939;-72
2024/04/23 04:52:59;;;;;;;;;;;16.80;55.70;;;;;;5488902;26;19928;-72
2024/04/23 04:55:24;;;;;;;;;;;16.60;55.50;;;;;;5488644;26;19939;-72
2024/04/23 04:57:50;;;;;;;;;;;16.60;55.30;;;;;;5488780;26;19928;-72
2024/04/23 05:00:15;;;;;;;;;;;16.60;55.60;;;;;;5488573;26;19927;-72
2024/04/23 05:02:41;;;;;;;;;;;16.60;55.10;;;;;;5488583;26;19940;-72
2024/04/23 05:05:08;;;;;;;;;;;16.60;55.40;;;;;;5488287;26;20335;-73
2024/04/23 05:07:34;;;;;;;;;;;16.50;55.10;;;;;;5488284;26;20338;-72
2024/04/23 05:10:00;;;;;;;;;;;16.40;54.60;;;;;;5488217;26;19960;-73
2024/04/23 05:12:26;;;;;;;;;;;16.60;55.60;;;;;;5487971;26;20338;-74
2024/04/23 05:14:51;;;;;;;;;;;16.50;55.80;;;;;;5487977;26;19928;-73
2024/04/23 05:17:17;;;;;;;;;;;16.50;55.60;;;;;;5486314;26;19995;-77
2024/04/23 05:19:44;;;;;;;;;;;16.50;55.50;;;;;;5488541;26;19928;-76
2024/04/23 05:22:10;;;;;;;;;;;16.50;55.10;;;;;;5488257;26;19954;-75
2024/04/23 05:24:36;;;;;;;;;;;16.50;55.60;;;;;;5488043;25;20386;-75
2024/04/23 05:27:01;;;;;;;;;;;16.50;56.10;;;;;;5488043;26;19932;-75
2024/04/23 05:29:27;;;;;;;;;;;16.50;55.30;;;;;;5485912;26;19936;-74
2024/04/23 05:34:37;;;;;;;;;;;16.60;52.50;;;;;;5491602;26;19996;-74
2024/04/23 05:37:02;;;;;;;;;;;16.50;55.70;;;;;;5491515;26;19928;-76
2024/04/23 05:39:28;;;;;;;;;;;16.50;55.80;;;;;;5491427;26;19935;-75
2024/04/23 05:41:53;;;;;;;;;;;16.50;55.80;;;;;;5491179;26;19955;-75
2024/04/23 05:44:18;;;;;;;;;;;16.50;55.70;;;;;;5491343;26;19932;-73
2024/04/23 05:46:44;;;;;;;;;;;16.40;55.60;;;;;;5491511;26;19931;-77
2024/04/23 05:49:29;;;;;;;;;;;16.50;55.70;;;;;;5491249;26;19928;-74
2024/04/23 05:52:13;;;;;;;;;;;16.50;52.30;;;;;;5491066;26;19962;-74
2024/04/23 05:54:57;;;;;;;;;;;16.40;51.50;;;;;;5491148;26;19928;-74
2024/04/23 05:57:23;;;;;;;;;;;16.50;51.90;;;;;;5491317;26;19935;-76
2024/04/23 05:59:48;;;;;;;;;;;16.60;55.80;;;;;;5490976;26;19927;-78
2024/04/23 06:02:14;;;;;;;;;;;16.40;55.90;;;;;;5491184;26;19936;-77
2024/04/23 06:04:39;;;;;;;;;;;16.40;55.90;;;;;;5491365;26;19928;-77
2024/04/23 06:07:05;;;;;;;;;;;16.50;56.60;;;;;;5490957;26;20313;-70
2024/04/23 06:09:32;;;;;;;;;;;16.40;56.30;;;;;;5489970;26;19935;-71
2024/04/23 06:11:58;;;;;;;;;;;16.50;56.00;;;;;;5489730;26;20337;-71
2024/04/23 06:14:24;;;;;;;;;;;16.40;56.40;;;;;;5489544;26;20056;-70
2024/04/23 06:17:09;;;;;;;;;;;16.50;56.10;;;;;;5489869;26;20361;-71
2024/04/23 06:19:34;;;;;;;;;;;16.40;52.20;;;;;;5489663;26;20378;-71
2024/04/23 06:22:00;;;;;;;;;;;16.50;56.40;;;;;;5489146;26;20001;-71
2024/04/23 06:24:26;;;;;;;;;;;16.50;56.20;;;;;;5489433;26;20255;-71
2024/04/23 06:26:52;;;;;;;;;;;16.50;56.60;;;;;;5489191;26;19998;-80
2024/04/23 06:29:17;;;;;;;;;;;16.50;56.80;;;;;;5489362;26;19996;-79
2024/04/23 06:31:43;;;;;;;;;;;16.50;56.90;;;;;;5489601;26;19928;-80
2024/04/23 06:34:08;;;;;;;;;;;16.40;56.40;;;;;;5489674;26;19935;-80
2024/04/23 06:36:34;;;;;;;;;;;16.50;56.50;;;;;;5489596;26;20105;-80
2024/04/23 06:39:00;;;;;;;;;;;16.80;56.60;;;;;;5489612;26;20005;-80
2024/04/23 06:41:25;;;;;;;;;;;16.80;56.90;;;;;;5489712;26;19996;-80
2024/04/23 06:43:51;;;;;;;;;;;16.60;57.10;;;;;;5488854;26;20262;-83
2024/04/23 06:46:16;;;;;;;;;;;16.50;57.00;;;;;;5489665;26;19928;-81
2024/04/23 06:48:42;;;;;;;;;;;16.60;57.10;;;;;;5488978;26;20273;-80
2024/04/23 06:51:07;;;;;;;;;;;16.50;57.10;;;;;;5486898;26;19960;-79
2024/04/23 06:53:33;;;;;;;;;;;16.60;57.00;;;;;;5489273;26;20314;-77
2024/04/23 06:55:59;;;;;;;;;;;16.60;56.80;;;;;;5489215;26;20024;-80
2024/04/23 06:58:24;;;;;;;;;;;16.60;56.90;;;;;;5489224;26;19939;-79
2024/04/23 07:00:50;;;;;;;;;;;16.90;57.10;;;;;;5486986;26;19928;-79
2024/04/23 07:03:15;;;;;;;;;;;16.70;56.20;;;;;;5488732;26;20363;-79
2024/04/23 07:05:40;;;;;;;;;;;16.90;57.10;;;;;;5489049;26;19928;-75
2024/04/23 07:08:06;;;;;;;;;;;16.80;56.40;;;;;;5488930;26;20436;-77
2024/04/23 07:10:32;;;;;;;;;;;17.20;56.00;;;;;;5489464;26;19959;-80
2024/04/23 07:12:57;;;;;;;;;;;17.00;55.90;;;;;;5489192;26;19932;-75
2024/04/23 07:15:23;;;;;;;;;;;17.20;56.10;;;;;;5489232;26;19928;-75
2024/04/23 07:17:49;;;;;;;;;;;17.30;56.10;;;;;;5488924;26;20286;-73
2024/04/23 07:20:14;;;;;;;;;;;17.30;55.90;;;;;;5489458;26;19940;-73
2024/04/23 07:22:40;;;;;;;;;;;17.30;56.30;;;;;;5488917;26;19928;-74
2024/04/23 07:25:05;;;;;;;;;;;17.30;55.90;;;;;;5488990;26;19936;-77
2024/04/23 07:27:31;;;;;;;;;;;17.30;56.10;;;;;;5488698;26;19931;-78
2024/04/23 07:29:56;;;;;;;;;;;17.30;56.60;;;;;;5488625;26;19928;-79
2024/04/23 07:32:22;;;;;;;;;;;17.40;57.40;;;;;;5488983;26;19979;-76
2024/04/23 07:34:47;;;;;;;;;;;17.30;57.30;;;;;;5488981;26;19959;-78
2024/04/23 07:37:13;;;;;;;;;;;17.40;58.10;;;;;;5486973;26;19927;-80
2024/04/23 07:39:38;;;;;;;;;;;17.10;58.00;;;;;;5489227;26;19954;-76
2024/04/23 07:42:04;;;;;;;;;;;17.30;58.10;;;;;;5489029;26;20425;-78
2024/04/23 07:44:30;;;;;;;;;;;17.30;57.30;;;;;;5488866;26;19932;-78
2024/04/23 07:46:55;;;;;;;;;;;17.40;58.50;;;;;;5488770;26;19935;-76
2024/04/23 07:49:21;;;;;;;;;;;17.30;58.30;;;;;;5488466;26;20234;-76
2024/04/23 07:51:47;;;;;;;;;;;17.40;59.00;;;;;;5488517;26;20329;-76
2024/04/23 07:54:12;;;;;;;;;;;17.40;59.10;;;;;;5487966;26;19928;-76
2024/04/23 07:56:37;;;;;;;;;;;17.40;59.10;;;;;;5488525;26;19996;-76
2024/04/23 07:59:03;;;;;;;;;;;17.40;59.30;;;;;;5488622;26;19932;-76
2024/04/23 08:01:28;;;;;;;;;;;17.30;59.40;;;;;;5488121;26;19935;-77
2024/04/23 08:03:54;;;;;;;;;;;17.50;60.10;;;;;;5488060;26;19996;-77
2024/04/23 08:06:20;;;;;;;;;;;17.20;59.90;;;;;;5488195;26;19956;-77
2024/04/23 08:08:46;;;;;;;;;;;17.50;60.60;;;;;;5488045;26;19996;-77
2024/04/23 08:11:11;;;;;;;;;;;17.50;60.50;;;;;;5488222;26;19935;-77
2024/04/23 08:13:39;;;;;;;;;;;17.80;61.70;;;;;;5487836;26;19935;-77
2024/04/23 08:16:05;;;;;;;;;;;17.40;61.00;;;;;;5487909;26;20282;-77
2024/04/23 08:18:33;;;;;;;;;;;16.80;61.00;;;;;;5488162;26;20015;-77
2024/04/23 08:21:00;;;;;;;;;;;17.50;62.30;;;;;;5487838;26;19928;-77
2024/04/23 08:23:25;;;;;;;;;;;17.60;63.80;;;;;;5488213;26;19928;-78
2024/04/23 08:25:51;;;;;;;;;;;17.60;64.60;;;;;;5488351;26;20337;-79
2024/04/23 08:28:16;;;;;;;;;;;17.60;68.40;;;;;;5487951;26;19928;-77
2024/04/23 08:30:43;;;;;;;;;;;17.50;61.70;;;;;;5488011;26;20040;-77
2024/04/23 08:33:08;;;;;;;;;;;17.90;62.40;;;;;;5489207;26;19928;-78
2024/04/23 08:35:34;;;;;;;;;;;17.60;62.40;;;;;;5487539;26;19939;-77
2024/04/23 08:37:59;;;;;;;;;;;17.60;62.20;;;;;;5487826;26;19939;-77
2024/04/23 08:40:26;;;;;;;;;;;17.70;62.50;;;;;;5487625;26;19934;-77
2024/04/23 08:42:54;;;;;;;;;;;17.70;62.50;;;;;;5487411;26;20255;-77
2024/04/23 08:45:22;;;;;;;;;;;17.70;62.60;;;;;;5485545;26;20015;-76
2024/04/23 08:47:47;;;;;;;;;;;17.80;62.60;;;;;;5485512;26;20234;-75
2024/04/23 08:50:13;;;;;;;;;;;17.90;62.00;;;;;;5487096;26;19928;-76
2024/04/23 08:52:38;;;;;;;;;;;17.90;62.60;;;;;;5487499;26;19935;-76
2024/04/23 08:55:05;;;;;;;;;;;17.90;62.20;;;;;;5487278;26;19928;-76
2024/04/23 08:57:31;;;;;;;;;;;17.90;61.10;;;;;;5487461;26;19956;-75
2024/04/23 08:59:57;;;;;;;;;;;18.00;62.40;;;;;;5487219;26;19927;-76
2024/04/23 09:02:29;;;;;;;;;;;18.00;62.20;;;;;;5486949;26;20335;-75
2024/04/23 09:04:59;;;;;;;;;;;18.20;58.40;;;;;;5486884;26;19939;-76
2024/04/23 09:07:41;;;;;;;;;;;18.10;62.30;;;;;;5487016;26;19928;-76
2024/04/23 09:10:07;;;;;;;;;;;18.20;62.30;;;;;;5487204;26;19935;-75
2024/04/23 09:12:33;;;;;;;;;;;18.10;60.00;;;;;;5487344;26;19935;-75
2024/04/23 09:14:59;;;;;;;;;;;18.20;62.30;;;;;;5487406;26;19927;-73
2024/04/23 09:17:25;;;;;;;;;;;18.20;62.70;;;;;;5487391;26;19940;-72
2024/04/23 09:19:53;;;;;;;;;;;18.60;62.40;;;;;;5487064;26;20343;-73
2024/04/23 09:22:19;;;;;;;;;;;18.40;61.90;;;;;;5486794;26;19928;-71
2024/04/23 09:24:45;;;;;;;;;;;18.30;62.10;;;;;;5486694;26;20052;-73
2024/04/23 09:27:10;;;;;;;;;;;18.40;62.50;;;;;;5487036;26;19928;-74
2024/04/23 09:29:36;;;;;;;;;;;18.40;62.30;;;;;;5486814;26;20701;-72
2024/04/23 09:32:02;;;;;;;;;;;18.40;62.10;;;;;;5487069;26;20013;-73
2024/04/23 09:34:31;;;;;;;;;;;19.80;62.90;;;;;;5487116;26;20301;-72
2024/04/23 09:37:03;;;;;;;;;;;18.70;58.90;;;;;;5486637;26;19928;-72
2024/04/23 09:39:38;;;;;;;;;;;18.50;62.50;;;;;;5487171;26;20058;-74
2024/04/23 09:42:04;;;;;;;;;;;18.50;62.30;;;;;;5486906;26;19977;-74
2024/04/23 09:44:30;;;;;;;;;;;17.50;61.40;;;;;;5486742;26;19928;-74
2024/04/23 09:46:56;;;;;;;;;;;18.70;62.30;;;;;;5486594;26;19934;-74
2024/04/23 09:49:22;;;;;;;;;;;18.80;62.30;;;;;;5486495;26;19928;-73
2024/04/23 09:51:48;;;;;;;;;;;18.80;62.30;;;;;;5486301;26;20265;-74
2024/04/23 09:54:14;;;;;;;;;;;18.90;62.00;;;;;;5486482;26;19954;-76
2024/04/23 09:56:40;;;;;;;;;;;19.00;61.60;;;;;;5486767;26;20307;-73
2024/04/23 09:59:10;;;;;;;;;;;18.80;61.50;;;;;;5485961;26;19934;-73
2024/04/23 10:01:36;;;;;;;;;;;19.10;57.40;;;;;;5486137;26;19928;-74
2024/04/23 10:04:03;;;;;;;;;;;19.20;61.20;;;;;;5486015;26;19935;-75
2024/04/23 10:06:34;;;;;;;;;;;19.30;61.30;;;;;;5486315;26;19935;-73
2024/04/23 10:09:03;;;;;;;;;;;19.00;60.90;;;;;;5486173;26;20357;-73
2024/04/23 10:11:29;;;;;;;;;;;19.20;56.90;;;;;;5486162;26;20291;-75
2024/04/23 10:14:01;;;;;;;;;;;19.40;60.60;;;;;;5486349;26;19928;-73
2024/04/23 10:16:31;;;;;;;;;;;19.50;60.80;;;;;;5486642;26;19927;-72
2024/04/23 10:19:00;;;;;;;;;;;19.80;56.90;;;;;;5487234;26;19928;-73
2024/04/23 10:21:28;;;;;;;;;;;19.70;61.00;;;;;;5487160;26;19931;-72
2024/04/23 10:23:58;;;;;;;;;;;19.80;60.70;;;;;;5487083;26;19936;-73
2024/04/23 10:26:25;;;;;;;;;;;19.90;60.80;;;;;;5487299;26;19996;-72
2024/04/23 10:28:51;;;;;;;;;;;20.20;60.80;;;;;;5487099;26;19971;-73
2024/04/23 10:31:18;;;;;;;;;;;20.00;60.40;;;;;;5487121;26;19935;-73
2024/04/23 10:33:47;;;;;;;;;;;20.20;60.00;;;;;;5489603;26;19951;-73
2024/04/23 10:36:14;;;;;;;;;;;20.20;56.10;;;;;;5489894;26;19928;-73
2024/04/23 10:38:42;;;;;;;;;;;20.10;60.00;;;;;;5489868;26;20013;-72
2024/04/23 10:41:10;;;;;;;;;;;20.40;60.00;;;;;;5489686;26;19928;-73
2024/04/23 10:43:36;;;;;;;;;;;20.40;60.30;;;;;;5489404;26;19927;-73
2024/04/23 10:46:02;;;;;;;;;;;20.40;59.90;;;;;;5489389;26;19932;-73
2024/04/23 10:48:28;;;;;;;;;;;20.50;59.50;;;;;;5489264;26;20254;-73
2024/04/23 10:50:56;;;;;;;;;;;20.70;60.00;;;;;;5489280;26;19928;-73
2024/04/23 10:53:22;;;;;;;;;;;20.70;60.00;;;;;;5489211;26;20278;-73
2024/04/23 10:55:48;;;;;;;;;;;20.70;59.90;;;;;;5489332;26;19935;-73
2024/04/23 10:58:14;;;;;;;;;;;20.90;60.10;;;;;;5489431;26;19932;-73
2024/04/23 11:00:40;;;;;;;;;;;20.80;60.00;;;;;;5489003;26;19932;-73
2024/04/23 11:03:16;;;;;;;;;;;20.80;59.70;;;;;;5488798;26;19940;-73
2024/04/23 11:05:46;;;;;;;;;;;20.80;55.80;;;;;;5488953;26;20342;-73
2024/04/23 11:08:20;;;;;;;;;;;20.90;55.90;;;;;;5489057;26;19932;-73
2024/04/23 11:10:53;;;;;;;;;;;20.80;60.20;;;;;;5489029;26;19935;-73
2024/04/23 11:13:26;;;;;;;;;;;20.80;56.10;;;;;;5489243;26;20488;-73
2024/04/23 11:15:54;;;;;;;;;;;20.80;56.00;;;;;;5488903;26;20332;-73
2024/04/23 11:18:20;;;;;;;;;;;21.00;60.10;;;;;;5488671;26;19935;-73
2024/04/23 11:20:47;;;;;;;;;;;21.00;60.00;;;;;;5488933;26;19936;-73
2024/04/23 11:23:14;;;;;;;;;;;21.00;60.30;;;;;;5488635;26;19928;-73
2024/04/23 11:25:40;;;;;;;;;;;21.00;60.10;;;;;;5489241;26;19962;-73
2024/04/23 11:28:07;;;;;;;;;;;21.00;60.50;;;;;;5487828;26;20342;-73
2024/04/23 11:30:33;;;;;;;;;;;21.10;61.00;;;;;;5488747;26;19935;-73
2024/04/23 11:32:59;;;;;;;;;;;21.10;61.40;;;;;;5488488;26;19928;-72
2024/04/23 11:35:25;;;;;;;;;;;21.00;61.90;;;;;;5488585;26;20266;-72
2024/04/23 11:37:55;;;;;;;;;;;20.90;62.10;;;;;;5488350;26;19928;-72
2024/04/23 11:40:21;;;;;;;;;;;21.00;58.30;;;;;;5488951;26;19928;-73
2024/04/23 11:42:47;;;;;;;;;;;20.70;62.10;;;;;;5488958;26;19928;-72
2024/04/23 11:45:13;;;;;;;;;;;21.00;63.20;;;;;;5488586;26;20265;-72
2024/04/23 11:47:39;;;;;;;;;;;20.80;63.30;;;;;;5488803;26;20270;-72
2024/04/23 11:50:05;;;;;;;;;;;20.80;63.90;;;;;;5488524;26;19935;-73
2024/04/23 11:52:32;;;;;;;;;;;21.10;63.40;;;;;;5488365;26;19934;-74
2024/04/23 11:54:58;;;;;;;;;;;21.20;63.40;;;;;;5488703;26;19935;-73
2024/04/23 11:57:24;;;;;;;;;;;21.30;63.10;;;;;;5489257;26;19932;-73
2024/04/23 11:59:50;;;;;;;;;;;21.30;63.00;;;;;;5489079;26;19928;-73
2024/04/23 12:02:16;;;;;;;;;;;21.40;62.90;;;;;;5488197;26;19928;-73
2024/04/23 12:04:42;;;;;;;;;;;21.50;63.10;;;;;;5488207;26;20050;-75
2024/04/23 12:07:11;;;;;;;;;;;21.60;57.80;;;;;;5488618;26;20025;-75
2024/04/23 12:09:37;;;;;;;;;;;21.60;53.60;;;;;;5488408;26;19935;-75
2024/04/23 12:12:03;;;;;;;;;;;21.60;57.40;;;;;;5488446;26;19928;-77
2024/04/23 12:14:30;;;;;;;;;;;21.70;56.80;;;;;;5488388;26;19936;-77
2024/04/23 12:16:56;;;;;;;;;;;21.60;57.80;;;;;;5488415;26;19963;-77
2024/04/23 12:19:22;;;;;;;;;;;21.50;57.90;;;;;;5488259;26;20051;-77
2024/04/23 12:21:47;;;;;;;;;;;21.60;58.10;;;;;;5488513;26;20226;-79
2024/04/23 12:24:14;;;;;;;;;;;21.50;58.00;;;;;;5486714;26;19928;-77
2024/04/23 12:26:40;;;;;;;;;;;21.60;58.00;;;;;;5487837;26;19927;-77
2024/04/23 12:29:06;;;;;;;;;;;21.60;57.90;;;;;;5488420;26;20262;-77
2024/04/23 12:31:32;;;;;;;;;;;21.70;57.90;;;;;;5488665;26;19928;-77
2024/04/23 12:33:58;;;;;;;;;;;21.60;58.00;;;;;;5488182;26;19963;-77
2024/04/23 12:36:24;;;;;;;;;;;21.60;58.50;;;;;;5488365;26;19934;-77
2024/04/23 12:38:50;;;;;;;;;;;21.60;59.10;;;;;;5487990;26;19928;-77
2024/04/23 12:41:17;;;;;;;;;;;21.60;59.40;;;;;;5486629;26;19935;-77
2024/04/23 12:43:44;;;;;;;;;;;21.60;60.30;;;;;;5487257;26;19944;-77
2024/04/23 12:46:10;;;;;;;;;;;21.70;60.50;;;;;;5488125;26;19930;-78
2024/04/23 12:48:36;;;;;;;;;;;21.70;60.70;;;;;;5486171;26;20033;-75
2024/04/23 12:51:01;;;;;;;;;;;21.80;60.40;;;;;;5487651;26;20266;-77
2024/04/23 12:53:27;;;;;;;;;;;21.80;60.50;;;;;;5485776;26;19928;-77
2024/04/23 12:55:53;;;;;;;;;;;21.70;60.70;;;;;;5487542;26;20358;-76
2024/04/23 12:58:19;;;;;;;;;;;21.70;61.30;;;;;;5488080;26;19928;-76
2024/04/23 13:00:45;;;;;;;;;;;21.80;61.80;;;;;;5487358;26;19932;-76
2024/04/23 13:03:12;;;;;;;;;;;21.80;62.90;;;;;;5487087;26;19928;-77
2024/04/23 13:05:37;;;;;;;;;;;21.90;62.90;;;;;;5487187;26;19964;-77
2024/04/23 13:08:04;;;;;;;;;;;22.00;62.60;;;;;;5487330;26;20051;-76
2024/04/23 13:10:30;;;;;;;;;;;22.00;62.20;;;;;;5487128;26;20339;-76
2024/04/23 13:12:56;;;;;;;;;;;22.20;61.80;;;;;;5487315;26;20286;-77
2024/04/23 13:15:22;;;;;;;;;;;22.20;62.00;;;;;;5487119;26;19928;-77
2024/04/23 13:17:49;;;;;;;;;;;22.30;63.40;;;;;;5487192;26;19935;-76
2024/04/23 13:20:15;;;;;;;;;;;22.30;62.90;;;;;;5486926;26;20018;-77
2024/04/23 13:22:40;;;;;;;;;;;22.40;64.40;;;;;;5486923;26;19928;-76
2024/04/23 13:25:09;;;;;;;;;;;22.40;63.70;;;;;;5486732;26;20175;-76
2024/04/23 13:27:35;;;;;;;;;;;22.50;64.60;;;;;;5487093;26;19944;-76
2024/04/23 13:30:01;;;;;;;;;;;22.50;65.50;;;;;;5486618;26;19935;-76
2024/04/23 13:32:27;;;;;;;;;;;22.50;68.70;;;;;;5487010;26;19943;-76
2024/04/23 13:34:53;;;;;;;;;;;22.40;67.80;;;;;;5486927;26;20262;-76
2024/04/23 13:37:19;;;;;;;;;;;22.60;67.80;;;;;;5486526;26;19936;-76
2024/04/23 13:39:45;;;;;;;;;;;22.40;70.20;;;;;;5486529;26;19935;-76
2024/04/23 13:42:11;;;;;;;;;;;22.30;69.70;;;;;;5486658;26;19928;-76
2024/04/23 13:44:37;;;;;;;;;;;22.30;70.40;;;;;;5486873;26;19936;-76
2024/04/23 13:47:04;;;;;;;;;;;22.20;70.40;;;;;;5486731;26;20025;-76
2024/04/23 13:49:30;;;;;;;;;;;22.20;68.40;;;;;;5486383;26;19956;-77
2024/04/23 13:51:55;;;;;;;;;;;22.40;70.50;;;;;;5487600;26;19927;-77
2024/04/23 13:54:21;;;;;;;;;;;22.50;71.00;;;;;;5490263;26;19928;-77
2024/04/23 13:56:47;;;;;;;;;;;22.50;70.80;;;;;;5489968;26;19939;-76
2024/04/23 13:59:15;;;;;;;;;;;22.40;70.50;;;;;;5489996;26;19956;-77
2024/04/23 14:01:41;;;;;;;;;;;22.50;70.50;;;;;;5490022;26;19935;-77
2024/04/23 14:04:07;;;;;;;;;;;22.50;71.20;;;;;;5490112;26;19940;-76
2024/04/23 14:06:33;;;;;;;;;;;22.70;71.90;;;;;;5490609;26;19935;-77
2024/04/23 14:08:58;;;;;;;;;;;22.70;73.50;;;;;;5490090;26;19928;-77
2024/04/23 14:11:24;;;;;;;;;;;22.70;77.30;;;;;;5490394;26;20324;-76
2024/04/23 14:13:50;;;;;;;;;;;22.70;62.70;;;;;;5490291;26;19977;-75
2024/04/23 14:16:16;;;;;;;;;;;22.90;62.80;;;;;;5490225;26;19954;-75